sensor_id;sensor_type;location;lat;lon;timestamp;P1;durP1;ratioP1;P2;durP2;ratioP2
47337;SDS011;33069;51.970;5.892;2023-03-15T00:01:55;13.75;;;6.88;;
47337;SDS011;33069;51.970;5.892;2023-03-15T00:04:21;12.98;;;8.18;;
47337;SDS011;33069;51.970;5.892;2023-03-15T00:06:49;11.40;;;6.30;;
47337;SDS011;33069;51.970;5.892;2023-03-15T00:09:14;10.95;;;6.53;;
47337;SDS011;33069;51.970;5.892;2023-03-15T00:11:40;10.13;;;6.78;;
47337;SDS011;33069;51.970;5.892;2023-03-15T00:14:06;7.25;;;5.10;;
47337;SDS011;33069;51.970;5.892;2023-03-15T00:16:32;8.15;;;4.80;;
47337;SDS011;33069;51.970;5.892;2023-03-15T00:18:58;11.10;;;6.30;;
47337;SDS011;33069;51.970;5.892;2023-03-15T00:21:24;11.13;;;5.18;;
47337;SDS011;33069;51.970;5.892;2023-03-15T00:23:50;8.30;;;4.22;;
47337;SDS011;33069;51.970;5.892;2023-03-15T00:26:16;11.43;;;5.20;;
47337;SDS011;33069;51.970;5.892;2023-03-15T00:28:41;9.10;;;5.50;;
47337;SDS011;33069;51.970;5.892;2023-03-15T00:31:12;9.65;;;6.57;;
47337;SDS011;33069;51.970;5.892;2023-03-15T00:33:44;11.35;;;6.78;;
47337;SDS011;33069;51.970;5.892;2023-03-15T00:36:10;13.15;;;6.45;;
47337;SDS011;33069;51.970;5.892;2023-03-15T00:38:37;8.43;;;6.13;;
47337;SDS011;33069;51.970;5.892;2023-03-15T00:41:05;9.40;;;4.70;;
47337;SDS011;33069;51.970;5.892;2023-03-15T00:43:31;13.98;;;5.78;;
47337;SDS011;33069;51.970;5.892;2023-03-15T00:45:57;11.15;;;5.60;;
47337;SDS011;33069;51.970;5.892;2023-03-15T00:48:23;7.20;;;4.60;;
47337;SDS011;33069;51.970;5.892;2023-03-15T00:50:49;7.85;;;4.85;;
47337;SDS011;33069;51.970;5.892;2023-03-15T00:53:14;7.55;;;4.82;;
47337;SDS011;33069;51.970;5.892;2023-03-15T00:55:40;9.77;;;5.95;;
47337;SDS011;33069;51.970;5.892;2023-03-15T00:58:06;9.82;;;6.32;;
47337;SDS011;33069;51.970;5.892;2023-03-15T01:00:33;12.93;;;6.80;;
47337;SDS011;33069;51.970;5.892;2023-03-15T01:02:58;9.38;;;6.47;;
47337;SDS011;33069;51.970;5.892;2023-03-15T01:05:24;10.15;;;7.10;;
47337;SDS011;33069;51.970;5.892;2023-03-15T01:07:50;15.50;;;7.43;;
47337;SDS011;33069;51.970;5.892;2023-03-15T01:10:17;13.23;;;8.63;;
47337;SDS011;33069;51.970;5.892;2023-03-15T01:12:43;14.50;;;8.95;;
47337;SDS011;33069;51.970;5.892;2023-03-15T01:15:09;18.55;;;9.93;;
47337;SDS011;33069;51.970;5.892;2023-03-15T01:17:37;14.30;;;8.55;;
47337;SDS011;33069;51.970;5.892;2023-03-15T01:20:03;15.07;;;8.98;;
47337;SDS011;33069;51.970;5.892;2023-03-15T01:22:30;17.15;;;9.77;;
47337;SDS011;33069;51.970;5.892;2023-03-15T01:24:55;17.10;;;9.88;;
47337;SDS011;33069;51.970;5.892;2023-03-15T01:27:21;18.27;;;11.27;;
47337;SDS011;33069;51.970;5.892;2023-03-15T01:29:47;14.30;;;10.32;;
47337;SDS011;33069;51.970;5.892;2023-03-15T01:32:12;14.82;;;10.20;;
47337;SDS011;33069;51.970;5.892;2023-03-15T01:34:38;17.40;;;10.82;;
47337;SDS011;33069;51.970;5.892;2023-03-15T01:37:04;12.90;;;9.52;;
47337;SDS011;33069;51.970;5.892;2023-03-15T01:39:30;16.02;;;10.25;;
47337;SDS011;33069;51.970;5.892;2023-03-15T01:41:56;15.23;;;9.95;;
47337;SDS011;33069;51.970;5.892;2023-03-15T01:44:22;14.70;;;9.65;;
47337;SDS011;33069;51.970;5.892;2023-03-15T01:46:48;19.52;;;9.40;;
47337;SDS011;33069;51.970;5.892;2023-03-15T01:57:01;15.07;;;8.68;;
47337;SDS011;33069;51.970;5.892;2023-03-15T01:59:50;14.20;;;6.00;;
47337;SDS011;33069;51.970;5.892;2023-03-15T02:02:20;12.13;;;7.95;;
47337;SDS011;33069;51.970;5.892;2023-03-15T02:04:56;17.92;;;9.25;;
47337;SDS011;33069;51.970;5.892;2023-03-15T02:07:28;8.60;;;5.78;;
47337;SDS011;33069;51.970;5.892;2023-03-15T02:12:33;13.15;;;8.45;;
47337;SDS011;33069;51.970;5.892;2023-03-15T02:15:03;10.98;;;7.15;;
47337;SDS011;33069;51.970;5.892;2023-03-15T02:17:33;13.02;;;8.63;;
47337;SDS011;33069;51.970;5.892;2023-03-15T02:28:10;13.27;;;8.65;;
47337;SDS011;33069;51.970;5.892;2023-03-15T02:30:38;13.50;;;9.65;;
47337;SDS011;33069;51.970;5.892;2023-03-15T02:33:06;17.35;;;11.43;;
47337;SDS011;33069;51.970;5.892;2023-03-15T02:35:36;18.58;;;12.05;;
47337;SDS011;33069;51.970;5.892;2023-03-15T02:38:02;21.00;;;13.63;;
47337;SDS011;33069;51.970;5.892;2023-03-15T02:40:28;17.30;;;12.40;;
47337;SDS011;33069;51.970;5.892;2023-03-15T02:42:56;17.45;;;12.85;;
47337;SDS011;33069;51.970;5.892;2023-03-15T02:45:24;19.40;;;13.75;;
47337;SDS011;33069;51.970;5.892;2023-03-15T02:47:53;23.50;;;14.98;;
47337;SDS011;33069;51.970;5.892;2023-03-15T02:50:19;19.70;;;15.77;;
47337;SDS011;33069;51.970;5.892;2023-03-15T02:52:44;24.13;;;16.15;;
47337;SDS011;33069;51.970;5.892;2023-03-15T02:55:10;24.55;;;16.70;;
47337;SDS011;33069;51.970;5.892;2023-03-15T02:57:36;23.17;;;16.83;;
47337;SDS011;33069;51.970;5.892;2023-03-15T03:00:02;25.60;;;17.80;;
47337;SDS011;33069;51.970;5.892;2023-03-15T03:02:37;30.58;;;20.42;;
47337;SDS011;33069;51.970;5.892;2023-03-15T03:05:04;31.45;;;20.10;;
47337;SDS011;33069;51.970;5.892;2023-03-15T03:07:29;31.00;;;20.38;;
47337;SDS011;33069;51.970;5.892;2023-03-15T03:09:55;24.38;;;17.30;;
47337;SDS011;33069;51.970;5.892;2023-03-15T03:12:21;34.20;;;22.27;;
47337;SDS011;33069;51.970;5.892;2023-03-15T03:14:47;32.08;;;20.77;;
47337;SDS011;33069;51.970;5.892;2023-03-15T03:17:13;28.95;;;19.00;;
47337;SDS011;33069;51.970;5.892;2023-03-15T03:19:39;27.55;;;17.65;;
47337;SDS011;33069;51.970;5.892;2023-03-15T03:22:05;22.85;;;17.73;;
47337;SDS011;33069;51.970;5.892;2023-03-15T03:24:30;33.17;;;21.05;;
47337;SDS011;33069;51.970;5.892;2023-03-15T03:26:57;44.50;;;23.80;;
47337;SDS011;33069;51.970;5.892;2023-03-15T03:29:24;27.05;;;19.52;;
47337;SDS011;33069;51.970;5.892;2023-03-15T03:31:50;41.47;;;22.05;;
47337;SDS011;33069;51.970;5.892;2023-03-15T03:34:15;26.25;;;17.98;;
47337;SDS011;33069;51.970;5.892;2023-03-15T03:36:41;44.20;;;24.17;;
47337;SDS011;33069;51.970;5.892;2023-03-15T03:39:08;29.58;;;18.42;;
47337;SDS011;33069;51.970;5.892;2023-03-15T03:41:34;31.08;;;19.83;;
47337;SDS011;33069;51.970;5.892;2023-03-15T03:44:00;32.38;;;19.60;;
47337;SDS011;33069;51.970;5.892;2023-03-15T03:46:26;41.80;;;22.50;;
47337;SDS011;33069;51.970;5.892;2023-03-15T03:48:52;32.25;;;19.00;;
47337;SDS011;33069;51.970;5.892;2023-03-15T03:51:19;26.70;;;16.83;;
47337;SDS011;33069;51.970;5.892;2023-03-15T03:53:45;28.65;;;18.90;;
47337;SDS011;33069;51.970;5.892;2023-03-15T03:56:10;25.45;;;16.70;;
47337;SDS011;33069;51.970;5.892;2023-03-15T03:58:36;26.35;;;17.13;;
47337;SDS011;33069;51.970;5.892;2023-03-15T04:01:02;27.52;;;16.70;;
47337;SDS011;33069;51.970;5.892;2023-03-15T04:03:28;29.73;;;18.58;;
47337;SDS011;33069;51.970;5.892;2023-03-15T04:05:57;24.00;;;15.60;;
47337;SDS011;33069;51.970;5.892;2023-03-15T04:08:24;40.80;;;19.13;;
47337;SDS011;33069;51.970;5.892;2023-03-15T04:10:54;29.92;;;18.55;;
47337;SDS011;33069;51.970;5.892;2023-03-15T04:13:21;33.55;;;19.08;;
47337;SDS011;33069;51.970;5.892;2023-03-15T04:15:48;32.60;;;15.88;;
47337;SDS011;33069;51.970;5.892;2023-03-15T04:18:15;27.02;;;16.45;;
47337;SDS011;33069;51.970;5.892;2023-03-15T04:20:41;25.15;;;16.00;;
47337;SDS011;33069;51.970;5.892;2023-03-15T04:23:14;30.08;;;16.38;;
47337;SDS011;33069;51.970;5.892;2023-03-15T04:25:40;26.45;;;15.95;;
47337;SDS011;33069;51.970;5.892;2023-03-15T04:28:09;28.15;;;17.17;;
47337;SDS011;33069;51.970;5.892;2023-03-15T04:30:35;26.40;;;15.98;;
47337;SDS011;33069;51.970;5.892;2023-03-15T04:33:01;25.98;;;16.73;;
47337;SDS011;33069;51.970;5.892;2023-03-15T04:35:28;25.98;;;15.68;;
47337;SDS011;33069;51.970;5.892;2023-03-15T04:37:56;33.63;;;18.13;;
47337;SDS011;33069;51.970;5.892;2023-03-15T04:40:23;32.05;;;17.90;;
47337;SDS011;33069;51.970;5.892;2023-03-15T04:42:50;26.33;;;15.93;;
47337;SDS011;33069;51.970;5.892;2023-03-15T04:45:19;26.20;;;14.77;;
47337;SDS011;33069;51.970;5.892;2023-03-15T04:47:45;23.23;;;15.65;;
47337;SDS011;33069;51.970;5.892;2023-03-15T04:50:12;30.20;;;16.33;;
47337;SDS011;33069;51.970;5.892;2023-03-15T04:52:39;27.77;;;17.25;;
47337;SDS011;33069;51.970;5.892;2023-03-15T04:55:04;27.45;;;15.65;;
47337;SDS011;33069;51.970;5.892;2023-03-15T04:57:30;31.80;;;17.67;;
47337;SDS011;33069;51.970;5.892;2023-03-15T04:59:56;34.28;;;18.83;;
47337;SDS011;33069;51.970;5.892;2023-03-15T05:02:21;25.58;;;15.60;;
47337;SDS011;33069;51.970;5.892;2023-03-15T05:04:47;27.27;;;15.95;;
47337;SDS011;33069;51.970;5.892;2023-03-15T05:07:13;30.63;;;18.50;;
47337;SDS011;33069;51.970;5.892;2023-03-15T05:09:38;25.58;;;16.48;;
47337;SDS011;33069;51.970;5.892;2023-03-15T05:12:04;27.58;;;16.70;;
47337;SDS011;33069;51.970;5.892;2023-03-15T05:14:31;30.90;;;17.58;;
47337;SDS011;33069;51.970;5.892;2023-03-15T05:16:57;26.55;;;17.83;;
47337;SDS011;33069;51.970;5.892;2023-03-15T05:19:27;27.77;;;16.83;;
47337;SDS011;33069;51.970;5.892;2023-03-15T05:21:53;27.58;;;17.90;;
47337;SDS011;33069;51.970;5.892;2023-03-15T05:24:19;38.33;;;20.05;;
47337;SDS011;33069;51.970;5.892;2023-03-15T05:26:47;27.75;;;17.58;;
47337;SDS011;33069;51.970;5.892;2023-03-15T05:29:12;25.08;;;17.20;;
47337;SDS011;33069;51.970;5.892;2023-03-15T05:31:38;30.60;;;18.38;;
47337;SDS011;33069;51.970;5.892;2023-03-15T05:34:05;34.70;;;19.65;;
47337;SDS011;33069;51.970;5.892;2023-03-15T05:36:31;30.15;;;18.05;;
47337;SDS011;33069;51.970;5.892;2023-03-15T05:38:57;28.27;;;18.17;;
47337;SDS011;33069;51.970;5.892;2023-03-15T05:41:23;47.83;;;23.13;;
47337;SDS011;33069;51.970;5.892;2023-03-15T05:43:50;26.98;;;17.27;;
47337;SDS011;33069;51.970;5.892;2023-03-15T05:46:16;28.48;;;17.75;;
47337;SDS011;33069;51.970;5.892;2023-03-15T05:48:41;33.03;;;19.05;;
47337;SDS011;33069;51.970;5.892;2023-03-15T05:51:07;29.17;;;18.27;;
47337;SDS011;33069;51.970;5.892;2023-03-15T05:53:33;34.33;;;19.90;;
47337;SDS011;33069;51.970;5.892;2023-03-15T05:55:59;32.20;;;19.45;;
47337;SDS011;33069;51.970;5.892;2023-03-15T05:58:25;38.88;;;20.88;;
47337;SDS011;33069;51.970;5.892;2023-03-15T06:00:51;28.65;;;18.90;;
47337;SDS011;33069;51.970;5.892;2023-03-15T06:03:17;30.98;;;18.50;;
47337;SDS011;33069;51.970;5.892;2023-03-15T06:05:43;26.70;;;17.13;;
47337;SDS011;33069;51.970;5.892;2023-03-15T06:08:08;28.25;;;18.38;;
47337;SDS011;33069;51.970;5.892;2023-03-15T06:10:34;31.75;;;18.73;;
47337;SDS011;33069;51.970;5.892;2023-03-15T06:13:00;26.73;;;18.35;;
47337;SDS011;33069;51.970;5.892;2023-03-15T06:15:26;33.80;;;19.13;;
47337;SDS011;33069;51.970;5.892;2023-03-15T06:17:51;35.67;;;19.17;;
47337;SDS011;33069;51.970;5.892;2023-03-15T06:20:17;29.17;;;18.60;;
47337;SDS011;33069;51.970;5.892;2023-03-15T06:22:43;51.13;;;24.30;;
47337;SDS011;33069;51.970;5.892;2023-03-15T06:25:09;204.10;;;37.17;;
47337;SDS011;33069;51.970;5.892;2023-03-15T06:27:35;85.72;;;32.53;;
47337;SDS011;33069;51.970;5.892;2023-03-15T06:30:01;46.78;;;23.20;;
47337;SDS011;33069;51.970;5.892;2023-03-15T06:32:28;44.88;;;23.08;;
47337;SDS011;33069;51.970;5.892;2023-03-15T06:34:54;35.17;;;18.75;;
47337;SDS011;33069;51.970;5.892;2023-03-15T06:37:20;32.88;;;19.48;;
47337;SDS011;33069;51.970;5.892;2023-03-15T06:39:46;31.67;;;16.77;;
47337;SDS011;33069;51.970;5.892;2023-03-15T06:42:12;42.08;;;20.20;;
47337;SDS011;33069;51.970;5.892;2023-03-15T06:44:38;56.83;;;26.83;;
47337;SDS011;33069;51.970;5.892;2023-03-15T06:47:05;35.58;;;19.80;;
47337;SDS011;33069;51.970;5.892;2023-03-15T06:49:32;49.03;;;23.77;;
47337;SDS011;33069;51.970;5.892;2023-03-15T06:51:58;37.38;;;19.95;;
47337;SDS011;33069;51.970;5.892;2023-03-15T06:54:23;42.50;;;18.98;;
47337;SDS011;33069;51.970;5.892;2023-03-15T06:56:49;26.10;;;16.92;;
47337;SDS011;33069;51.970;5.892;2023-03-15T06:59:15;35.75;;;19.88;;
47337;SDS011;33069;51.970;5.892;2023-03-15T07:01:41;25.88;;;12.43;;
47337;SDS011;33069;51.970;5.892;2023-03-15T07:04:07;29.55;;;15.20;;
47337;SDS011;33069;51.970;5.892;2023-03-15T07:06:33;23.95;;;12.70;;
47337;SDS011;33069;51.970;5.892;2023-03-15T07:09:00;29.25;;;13.48;;
47337;SDS011;33069;51.970;5.892;2023-03-15T07:11:26;28.35;;;13.70;;
47337;SDS011;33069;51.970;5.892;2023-03-15T07:13:52;22.73;;;12.13;;
47337;SDS011;33069;51.970;5.892;2023-03-15T07:16:17;24.67;;;13.15;;
47337;SDS011;33069;51.970;5.892;2023-03-15T07:18:43;29.52;;;13.48;;
47337;SDS011;33069;51.970;5.892;2023-03-15T07:21:09;23.65;;;13.80;;
47337;SDS011;33069;51.970;5.892;2023-03-15T07:23:34;24.55;;;13.43;;
47337;SDS011;33069;51.970;5.892;2023-03-15T07:26:00;25.10;;;13.88;;
47337;SDS011;33069;51.970;5.892;2023-03-15T07:28:26;29.20;;;14.75;;
47337;SDS011;33069;51.970;5.892;2023-03-15T07:30:56;23.63;;;12.85;;
47337;SDS011;33069;51.970;5.892;2023-03-15T07:33:22;19.63;;;11.98;;
47337;SDS011;33069;51.970;5.892;2023-03-15T07:35:52;23.08;;;10.60;;
47337;SDS011;33069;51.970;5.892;2023-03-15T07:38:19;21.52;;;11.70;;
47337;SDS011;33069;51.970;5.892;2023-03-15T07:40:49;21.38;;;12.18;;
47337;SDS011;33069;51.970;5.892;2023-03-15T07:43:15;22.45;;;9.20;;
47337;SDS011;33069;51.970;5.892;2023-03-15T07:45:41;20.40;;;11.55;;
47337;SDS011;33069;51.970;5.892;2023-03-15T07:48:07;18.15;;;9.25;;
47337;SDS011;33069;51.970;5.892;2023-03-15T07:50:33;18.85;;;9.23;;
47337;SDS011;33069;51.970;5.892;2023-03-15T07:52:59;19.65;;;8.38;;
47337;SDS011;33069;51.970;5.892;2023-03-15T07:55:25;19.48;;;9.93;;
47337;SDS011;33069;51.970;5.892;2023-03-15T07:57:50;21.10;;;9.93;;
47337;SDS011;33069;51.970;5.892;2023-03-15T08:00:16;20.52;;;9.68;;
47337;SDS011;33069;51.970;5.892;2023-03-15T08:02:43;18.63;;;8.32;;
47337;SDS011;33069;51.970;5.892;2023-03-15T08:05:08;16.00;;;7.95;;
47337;SDS011;33069;51.970;5.892;2023-03-15T08:07:34;11.80;;;7.05;;
47337;SDS011;33069;51.970;5.892;2023-03-15T08:10:01;14.38;;;7.28;;
47337;SDS011;33069;51.970;5.892;2023-03-15T08:12:29;13.73;;;7.00;;
47337;SDS011;33069;51.970;5.892;2023-03-15T08:14:55;16.15;;;7.75;;
47337;SDS011;33069;51.970;5.892;2023-03-15T08:17:21;14.05;;;6.25;;
47337;SDS011;33069;51.970;5.892;2023-03-15T08:19:46;15.68;;;8.23;;
47337;SDS011;33069;51.970;5.892;2023-03-15T08:22:12;15.88;;;6.53;;
47337;SDS011;33069;51.970;5.892;2023-03-15T08:24:38;15.63;;;7.57;;
47337;SDS011;33069;51.970;5.892;2023-03-15T08:27:04;15.80;;;7.43;;
47337;SDS011;33069;51.970;5.892;2023-03-15T08:29:30;11.75;;;6.28;;
47337;SDS011;33069;51.970;5.892;2023-03-15T08:31:56;16.38;;;6.38;;
47337;SDS011;33069;51.970;5.892;2023-03-15T08:34:22;14.82;;;6.22;;
47337;SDS011;33069;51.970;5.892;2023-03-15T08:36:49;10.93;;;5.28;;
47337;SDS011;33069;51.970;5.892;2023-03-15T08:39:15;13.45;;;4.78;;
47337;SDS011;33069;51.970;5.892;2023-03-15T08:41:41;17.98;;;5.90;;
47337;SDS011;33069;51.970;5.892;2023-03-15T08:44:08;12.23;;;6.57;;
47337;SDS011;33069;51.970;5.892;2023-03-15T08:46:34;20.67;;;7.65;;
47337;SDS011;33069;51.970;5.892;2023-03-15T08:49:03;15.82;;;7.30;;
47337;SDS011;33069;51.970;5.892;2023-03-15T08:51:29;14.13;;;7.00;;
47337;SDS011;33069;51.970;5.892;2023-03-15T08:53:55;13.32;;;6.07;;
47337;SDS011;33069;51.970;5.892;2023-03-15T08:56:20;14.75;;;7.25;;
47337;SDS011;33069;51.970;5.892;2023-03-15T08:58:46;8.48;;;4.57;;
47337;SDS011;33069;51.970;5.892;2023-03-15T09:01:12;11.07;;;3.90;;
47337;SDS011;33069;51.970;5.892;2023-03-15T09:03:38;9.15;;;3.08;;
47337;SDS011;33069;51.970;5.892;2023-03-15T09:06:06;10.10;;;3.88;;
47337;SDS011;33069;51.970;5.892;2023-03-15T09:08:33;8.65;;;4.07;;
47337;SDS011;33069;51.970;5.892;2023-03-15T09:10:59;13.63;;;4.22;;
47337;SDS011;33069;51.970;5.892;2023-03-15T09:13:25;12.68;;;5.00;;
47337;SDS011;33069;51.970;5.892;2023-03-15T09:15:52;9.02;;;3.40;;
47337;SDS011;33069;51.970;5.892;2023-03-15T09:18:19;8.90;;;3.75;;
47337;SDS011;33069;51.970;5.892;2023-03-15T09:20:45;7.88;;;3.38;;
47337;SDS011;33069;51.970;5.892;2023-03-15T09:23:12;12.82;;;3.70;;
47337;SDS011;33069;51.970;5.892;2023-03-15T09:25:38;7.25;;;2.70;;
47337;SDS011;33069;51.970;5.892;2023-03-15T09:28:05;9.30;;;2.85;;
47337;SDS011;33069;51.970;5.892;2023-03-15T09:30:34;11.13;;;2.50;;
47337;SDS011;33069;51.970;5.892;2023-03-15T09:33:00;7.65;;;2.25;;
47337;SDS011;33069;51.970;5.892;2023-03-15T09:35:26;5.22;;;2.40;;
47337;SDS011;33069;51.970;5.892;2023-03-15T09:37:52;7.05;;;2.92;;
47337;SDS011;33069;51.970;5.892;2023-03-15T09:45:40;11.68;;;2.30;;
47337;SDS011;33069;51.970;5.892;2023-03-15T09:48:21;9.23;;;2.80;;
47337;SDS011;33069;51.970;5.892;2023-03-15T09:51:11;7.85;;;3.58;;
47337;SDS011;33069;51.970;5.892;2023-03-15T09:57:14;9.40;;;3.13;;
47337;SDS011;33069;51.970;5.892;2023-03-15T09:59:47;10.27;;;3.42;;
47337;SDS011;33069;51.970;5.892;2023-03-15T10:05:17;11.73;;;3.35;;
47337;SDS011;33069;51.970;5.892;2023-03-15T10:07:44;8.50;;;3.63;;
47337;SDS011;33069;51.970;5.892;2023-03-15T10:10:17;8.20;;;3.38;;
47337;SDS011;33069;51.970;5.892;2023-03-15T10:12:48;11.32;;;4.50;;
47337;SDS011;33069;51.970;5.892;2023-03-15T10:20:40;9.65;;;3.88;;
47337;SDS011;33069;51.970;5.892;2023-03-15T10:23:14;6.07;;;3.83;;
47337;SDS011;33069;51.970;5.892;2023-03-15T10:26:02;10.45;;;3.58;;
47337;SDS011;33069;51.970;5.892;2023-03-15T10:28:30;7.35;;;3.90;;
47337;SDS011;33069;51.970;5.892;2023-03-15T10:30:58;10.70;;;4.28;;
47337;SDS011;33069;51.970;5.892;2023-03-15T10:33:35;9.95;;;4.05;;
47337;SDS011;33069;51.970;5.892;2023-03-15T10:36:10;8.85;;;3.65;;
47337;SDS011;33069;51.970;5.892;2023-03-15T10:38:40;7.63;;;4.07;;
47337;SDS011;33069;51.970;5.892;2023-03-15T10:41:06;8.93;;;4.45;;
47337;SDS011;33069;51.970;5.892;2023-03-15T10:43:34;8.10;;;3.40;;
47337;SDS011;33069;51.970;5.892;2023-03-15T10:46:11;12.02;;;4.40;;
47337;SDS011;33069;51.970;5.892;2023-03-15T10:49:04;14.05;;;5.03;;
47337;SDS011;33069;51.970;5.892;2023-03-15T10:51:43;7.75;;;4.13;;
47337;SDS011;33069;51.970;5.892;2023-03-15T10:54:17;9.45;;;4.50;;
47337;SDS011;33069;51.970;5.892;2023-03-15T10:57:11;8.02;;;3.67;;
47337;SDS011;33069;51.970;5.892;2023-03-15T10:59:57;11.80;;;3.80;;
47337;SDS011;33069;51.970;5.892;2023-03-15T11:02:30;10.63;;;3.60;;
47337;SDS011;33069;51.970;5.892;2023-03-15T11:05:01;9.63;;;5.22;;
47337;SDS011;33069;51.970;5.892;2023-03-15T11:07:34;9.60;;;4.55;;
47337;SDS011;33069;51.970;5.892;2023-03-15T11:10:00;11.00;;;4.90;;
47337;SDS011;33069;51.970;5.892;2023-03-15T11:12:29;7.05;;;4.80;;
47337;SDS011;33069;51.970;5.892;2023-03-15T11:15:04;7.35;;;4.63;;
47337;SDS011;33069;51.970;5.892;2023-03-15T11:17:47;10.15;;;3.92;;
47337;SDS011;33069;51.970;5.892;2023-03-15T11:23:13;8.60;;;3.38;;
47337;SDS011;33069;51.970;5.892;2023-03-15T11:25:43;7.15;;;4.05;;
47337;SDS011;33069;51.970;5.892;2023-03-15T11:28:17;10.57;;;3.60;;
47337;SDS011;33069;51.970;5.892;2023-03-15T11:30:44;7.47;;;3.53;;
47337;SDS011;33069;51.970;5.892;2023-03-15T11:33:18;7.82;;;3.38;;
47337;SDS011;33069;51.970;5.892;2023-03-15T11:35:51;10.57;;;4.07;;
47337;SDS011;33069;51.970;5.892;2023-03-15T11:38:34;13.80;;;3.53;;
47337;SDS011;33069;51.970;5.892;2023-03-15T11:46:35;10.73;;;3.70;;
47337;SDS011;33069;51.970;5.892;2023-03-15T11:51:57;9.25;;;4.18;;
47337;SDS011;33069;51.970;5.892;2023-03-15T11:54:24;5.90;;;3.55;;
47337;SDS011;33069;51.970;5.892;2023-03-15T11:57:04;10.48;;;4.25;;
47337;SDS011;33069;51.970;5.892;2023-03-15T11:59:32;11.48;;;4.72;;
47337;SDS011;33069;51.970;5.892;2023-03-15T12:09:40;10.77;;;4.75;;
47337;SDS011;33069;51.970;5.892;2023-03-15T12:20:10;13.52;;;4.97;;
47337;SDS011;33069;51.970;5.892;2023-03-15T12:23:04;9.05;;;4.32;;
47337;SDS011;33069;51.970;5.892;2023-03-15T12:26:30;8.32;;;4.50;;
47337;SDS011;33069;51.970;5.892;2023-03-15T12:28:35;9.75;;;5.10;;
47337;SDS011;33069;51.970;5.892;2023-03-15T12:31:03;8.57;;;4.78;;
47337;SDS011;33069;51.970;5.892;2023-03-15T12:33:31;9.43;;;4.85;;
47337;SDS011;33069;51.970;5.892;2023-03-15T12:36:08;10.32;;;5.75;;
47337;SDS011;33069;51.970;5.892;2023-03-15T12:38:40;13.30;;;4.35;;
47337;SDS011;33069;51.970;5.892;2023-03-15T12:41:44;8.13;;;4.85;;
47337;SDS011;33069;51.970;5.892;2023-03-15T12:57:30;9.30;;;5.00;;
47337;SDS011;33069;51.970;5.892;2023-03-15T13:00:05;11.77;;;5.15;;
47337;SDS011;33069;51.970;5.892;2023-03-15T13:03:04;10.57;;;4.10;;
47337;SDS011;33069;51.970;5.892;2023-03-15T13:05:32;11.45;;;5.43;;
47337;SDS011;33069;51.970;5.892;2023-03-15T13:08:19;7.93;;;4.85;;
47337;SDS011;33069;51.970;5.892;2023-03-15T13:13:38;10.75;;;5.13;;
47337;SDS011;33069;51.970;5.892;2023-03-15T13:21:34;7.55;;;5.38;;
47337;SDS011;33069;51.970;5.892;2023-03-15T13:24:09;7.90;;;5.50;;
47337;SDS011;33069;51.970;5.892;2023-03-15T13:26:49;10.60;;;5.82;;
47337;SDS011;33069;51.970;5.892;2023-03-15T13:29:25;6.97;;;5.00;;
47337;SDS011;33069;51.970;5.892;2023-03-15T13:32:00;7.80;;;6.55;;
47337;SDS011;33069;51.970;5.892;2023-03-15T13:34:34;7.68;;;5.45;;
47337;SDS011;33069;51.970;5.892;2023-03-15T13:37:00;6.22;;;5.35;;
47337;SDS011;33069;51.970;5.892;2023-03-15T13:39:29;10.40;;;5.70;;
47337;SDS011;33069;51.970;5.892;2023-03-15T13:41:57;7.13;;;5.50;;
47337;SDS011;33069;51.970;5.892;2023-03-15T13:44:27;8.93;;;6.82;;
47337;SDS011;33069;51.970;5.892;2023-03-15T13:46:54;13.10;;;7.40;;
47337;SDS011;33069;51.970;5.892;2023-03-15T13:49:21;7.32;;;5.78;;
47337;SDS011;33069;51.970;5.892;2023-03-15T13:51:48;11.43;;;5.97;;
47337;SDS011;33069;51.970;5.892;2023-03-15T13:54:17;7.40;;;6.25;;
47337;SDS011;33069;51.970;5.892;2023-03-15T13:59:36;6.55;;;5.90;;
47337;SDS011;33069;51.970;5.892;2023-03-15T14:02:10;9.07;;;6.70;;
47337;SDS011;33069;51.970;5.892;2023-03-15T14:04:40;8.13;;;5.83;;
47337;SDS011;33069;51.970;5.892;2023-03-15T14:08:12;7.63;;;6.10;;
47337;SDS011;33069;51.970;5.892;2023-03-15T14:10:19;7.32;;;6.68;;
47337;SDS011;33069;51.970;5.892;2023-03-15T14:12:49;11.70;;;6.65;;
47337;SDS011;33069;51.970;5.892;2023-03-15T14:15:17;9.23;;;6.00;;
47337;SDS011;33069;51.970;5.892;2023-03-15T14:20:36;9.52;;;6.82;;
47337;SDS011;33069;51.970;5.892;2023-03-15T14:23:23;8.23;;;6.05;;
47337;SDS011;33069;51.970;5.892;2023-03-15T14:26:01;16.30;;;6.53;;
47337;SDS011;33069;51.970;5.892;2023-03-15T14:28:33;7.70;;;6.20;;
47337;SDS011;33069;51.970;5.892;2023-03-15T14:31:00;10.82;;;7.18;;
47337;SDS011;33069;51.970;5.892;2023-03-15T14:36:03;7.60;;;6.47;;
47337;SDS011;33069;51.970;5.892;2023-03-15T14:38:31;8.77;;;6.80;;
47337;SDS011;33069;51.970;5.892;2023-03-15T14:43:49;7.65;;;6.82;;
47337;SDS011;33069;51.970;5.892;2023-03-15T14:46:15;8.90;;;7.53;;
47337;SDS011;33069;51.970;5.892;2023-03-15T14:48:41;8.98;;;7.07;;
47337;SDS011;33069;51.970;5.892;2023-03-15T14:51:11;8.43;;;7.30;;
47337;SDS011;33069;51.970;5.892;2023-03-15T14:53:40;7.70;;;6.80;;
47337;SDS011;33069;51.970;5.892;2023-03-15T14:56:06;7.43;;;6.75;;
47337;SDS011;33069;51.970;5.892;2023-03-15T14:58:35;11.20;;;6.70;;
47337;SDS011;33069;51.970;5.892;2023-03-15T15:01:00;9.27;;;7.00;;
47337;SDS011;33069;51.970;5.892;2023-03-15T15:03:37;10.73;;;7.43;;
47337;SDS011;33069;51.970;5.892;2023-03-15T15:06:08;10.38;;;7.38;;
47337;SDS011;33069;51.970;5.892;2023-03-15T15:08:37;10.90;;;7.38;;
47337;SDS011;33069;51.970;5.892;2023-03-15T15:11:04;7.75;;;6.90;;
47337;SDS011;33069;51.970;5.892;2023-03-15T15:13:32;12.82;;;7.93;;
47337;SDS011;33069;51.970;5.892;2023-03-15T15:15:59;9.80;;;7.20;;
47337;SDS011;33069;51.970;5.892;2023-03-15T15:18:28;9.27;;;6.80;;
47337;SDS011;33069;51.970;5.892;2023-03-15T15:20:57;8.90;;;6.35;;
47337;SDS011;33069;51.970;5.892;2023-03-15T15:23:27;9.73;;;7.10;;
47337;SDS011;33069;51.970;5.892;2023-03-15T15:25:56;8.35;;;6.70;;
47337;SDS011;33069;51.970;5.892;2023-03-15T15:28:27;8.73;;;6.90;;
47337;SDS011;33069;51.970;5.892;2023-03-15T15:30:54;7.57;;;6.18;;
47337;SDS011;33069;51.970;5.892;2023-03-15T15:33:19;10.60;;;6.30;;
47337;SDS011;33069;51.970;5.892;2023-03-15T15:35:48;8.07;;;6.60;;
47337;SDS011;33069;51.970;5.892;2023-03-15T15:38:18;11.68;;;6.80;;
47337;SDS011;33069;51.970;5.892;2023-03-15T15:40:46;7.60;;;6.90;;
47337;SDS011;33069;51.970;5.892;2023-03-15T15:43:11;10.82;;;6.78;;
47337;SDS011;33069;51.970;5.892;2023-03-15T15:45:37;8.20;;;6.60;;
47337;SDS011;33069;51.970;5.892;2023-03-15T15:48:03;7.35;;;6.65;;
47337;SDS011;33069;51.970;5.892;2023-03-15T15:50:32;9.75;;;7.13;;
47337;SDS011;33069;51.970;5.892;2023-03-15T15:53:00;7.35;;;6.75;;
47337;SDS011;33069;51.970;5.892;2023-03-15T15:55:30;10.10;;;6.97;;
47337;SDS011;33069;51.970;5.892;2023-03-15T15:57:57;12.77;;;7.30;;
47337;SDS011;33069;51.970;5.892;2023-03-15T16:00:24;7.10;;;6.13;;
47337;SDS011;33069;51.970;5.892;2023-03-15T16:02:51;7.95;;;6.50;;
47337;SDS011;33069;51.970;5.892;2023-03-15T16:05:18;11.88;;;7.10;;
47337;SDS011;33069;51.970;5.892;2023-03-15T16:07:46;9.77;;;6.88;;
47337;SDS011;33069;51.970;5.892;2023-03-15T16:10:28;8.25;;;6.85;;
47337;SDS011;33069;51.970;5.892;2023-03-15T16:13:01;7.90;;;7.10;;
47337;SDS011;33069;51.970;5.892;2023-03-15T16:15:28;9.50;;;7.00;;
47337;SDS011;33069;51.970;5.892;2023-03-15T16:17:54;7.35;;;6.65;;